world map with FVFA marked

FVFA - Airport

This information may not be accurate or current and is not valid for navigation or flight planning. No warranty of fitness for any purpose is made or implied.

flag of Zimbabwe

Donate via PayPal

Additional information is available on the NEW Great Circle Mapper

Location
City:  Victoria Falls, Matabeleland North, Zimbabwe
Name:Victoria Falls Airport
ICAO / IATA:FVFA / VFA

Details
Type:Airport (Aerodrome, Airfield)
Use:Public/Civil
Latitude:18°05'45"S (-18.095880)
Longitude:25°50'20"E (25.839006)
Datum:WGS 1984
Elevation:3490 ft (1064 m)
Runways:1
Longest:7708 × 98 ft (2349 × 30 m)

Time
Timezone:UTC+2 (DST+4)
Local Time:

Weather
METAR:FVFA  040500Z 26002KT CAVOK 20/19 Q1016 NOSIG
TAF:FVFA  (expired)

Related Locations
Nearby:
Farthest:ITO: 12307 mi / 19806 km
Hilo [Hilo Intl], Hawaii, HI, US

Find:

   beyond  
but within

Other Information
Maps:
Sources:

  


 


Great Circle Mapper   Great Circle Mapper
Great Circle Mapper FAQ   Great Circle Mapper FAQ
  Karl's Home Page
KLSē   KLSē Home
   GC on Facebook
Airlines of the World   Airlines of the World
Donate via PayPal


Copyright © 2004-2019, Karl L. Swartz. All rights reserved.
All trademarks mentioned herein belong to their respective owners.

Please see credits for attribution and copyright information.

Karl Swartz <karl@kls2.com>
  Powered by FreeBSD
Valid HTML 4.01!
Labeled with ICRA
hCard Microformat
Geo Microformat